Time;durP1;ratioP1;P1;durP2;ratioP2;P2;SDS_P1;SDS_P2;PMS_P1;PMS_P2;Temp;Humidity;BMP_temperature;BMP_pressure;BME280_temperature;BME280_humidity;BME280_pressure;Samples;Min_cycle;Max_cycle;Signal;HPM_P1;HPM_P2
2023/09/28 00:00:49;;;;;;;12.48;5.05;;;17.10;99.90;;;;;;5040088;28;20020;-72
2023/09/28 00:03:15;;;;;;;11.43;5.40;;;17.00;99.90;;;;;;5033220;28;20033;-72
2023/09/28 00:05:41;;;;;;;13.32;4.97;;;17.10;99.90;;;;;;5050712;28;20032;-71
2023/09/28 00:08:07;;;;;;;11.85;4.82;;;17.10;99.90;;;;;;5036322;28;20028;-73
2023/09/28 00:10:33;;;;;;;;;;;17.40;99.90;;;;;;5028350;28;20487;-72
2023/09/28 00:12:59;;;;;;;11.32;4.80;;;17.30;99.90;;;;;;5027983;28;19905;-72
2023/09/28 00:15:25;;;;;;;13.90;4.82;;;17.40;99.90;;;;;;5032809;28;20029;-73
2023/09/28 00:17:51;;;;;;;15.90;6.22;;;17.20;99.90;;;;;;5031040;28;20041;-72
2023/09/28 00:20:19;;;;;;;10.77;4.47;;;17.20;99.90;;;;;;5048699;28;20487;-71
2023/09/28 00:22:49;;;;;;;11.95;4.63;;;17.20;99.90;;;;;;5038548;28;20021;-73
2023/09/28 00:25:16;;;;;;;11.48;4.88;;;17.10;99.90;;;;;;5028108;28;20029;-72
2023/09/28 00:27:43;;;;;;;10.38;5.22;;;17.00;99.90;;;;;;5023376;28;20037;-73
2023/09/28 00:30:12;;;;;;;16.98;5.28;;;16.90;99.90;;;;;;5036406;28;20069;-71
2023/09/28 00:32:38;;;;;;;8.82;5.15;;;17.10;99.90;;;;;;5045706;28;20117;-72
2023/09/28 00:35:06;;;;;;;12.35;5.70;;;17.00;99.90;;;;;;5022471;28;20108;-71
2023/09/28 00:37:32;;;;;;;10.80;4.57;;;17.10;99.90;;;;;;5031931;28;20840;-72
2023/09/28 00:39:58;;;;;;;15.30;5.28;;;17.00;99.90;;;;;;5044726;28;20077;-74
2023/09/28 00:42:27;;;;;;;8.43;5.25;;;17.00;99.90;;;;;;5031947;28;20025;-72
2023/09/28 00:44:54;;;;;;;13.90;4.90;;;;;;;;;;5034271;28;20037;-72
2023/09/28 00:47:20;;;;;;;10.38;4.72;;;;;;;;;;5040767;28;20116;-73
2023/09/28 00:49:46;;;;;;;15.35;4.88;;;;;;;;;;5044329;28;20686;-74
2023/09/28 00:52:16;;;;;;;9.55;4.97;;;;;;;;;;5059754;28;20438;-72
2023/09/28 00:54:43;;;;;;;9.98;5.32;;;;;;;;;;5041950;28;20056;-72
2023/09/28 00:57:09;;;;;;;11.98;5.68;;;;;;;;;;5049187;28;20044;-74
2023/09/28 00:59:36;;;;;;;15.43;5.75;;;;;;;;;;5043011;28;20448;-73
2023/09/28 01:02:02;;;;;;;16.25;5.72;;;;;;;;;;5043968;28;20124;-71
2023/09/28 01:04:28;;;;;;;9.40;4.97;;;;;;;;;;5037803;28;20376;-73
2023/09/28 01:06:54;;;;;;;12.52;5.20;;;;;;;;;;5039952;28;20040;-72
2023/09/28 01:09:21;;;;;;;17.55;4.90;;;;;;;;;;5041789;28;20041;-73
2023/09/28 01:11:48;;;;;;;10.38;5.10;;;16.80;99.90;;;;;;5039155;28;20156;-71
2023/09/28 01:14:14;;;;;;;19.63;5.18;;;16.20;99.90;;;;;;5030487;28;20041;-71
2023/09/28 01:16:40;;;;;;;8.77;4.38;;;16.10;99.90;;;;;;5040079;28;20041;-72
2023/09/28 01:19:06;;;;;;;15.83;5.17;;;16.20;99.90;;;;;;5039982;28;20036;-71
2023/09/28 01:21:32;;;;;;;16.02;5.55;;;16.00;99.90;;;;;;5035727;28;20033;-72
2023/09/28 01:23:57;;;;;;;9.10;4.83;;;16.10;99.90;;;;;;5040813;28;20039;-71
2023/09/28 01:26:23;;;;;;;10.17;4.67;;;16.10;99.90;;;;;;5036630;28;20387;-73
2023/09/28 01:28:49;;;;;;;9.70;5.75;;;16.10;99.90;;;;;;5034034;28;20037;-71
2023/09/28 01:31:15;;;;;;;15.53;5.50;;;16.10;99.90;;;;;;5041632;28;20593;-73
2023/09/28 01:33:42;;;;;;;11.80;5.10;;;16.00;99.90;;;;;;5037851;28;20033;-72
2023/09/28 01:36:08;;;;;;;14.45;5.10;;;16.10;99.90;;;;;;5034480;28;20339;-72
2023/09/28 01:38:48;;;;;;;7.10;4.37;;;16.20;99.90;;;;;;5027016;28;20029;-72
2023/09/28 01:41:14;;;;;;;16.63;5.10;;;16.30;99.90;;;;;;5034051;28;20091;-72
2023/09/28 01:43:40;;;;;;;9.20;4.60;;;16.30;99.90;;;;;;5035392;28;20040;-73
2023/09/28 01:46:06;;;;;;;11.98;5.30;;;16.30;99.90;;;;;;5037513;28;20041;-73
2023/09/28 01:48:31;;;;;;;9.07;4.70;;;16.40;99.90;;;;;;5042764;28;20028;-75
2023/09/28 01:50:57;;;;;;;17.80;4.67;;;16.40;99.90;;;;;;5039514;28;20024;-73
2023/09/28 01:53:23;;;;;;;9.07;4.57;;;16.30;99.90;;;;;;5030425;28;20503;-72
2023/09/28 01:55:50;;;;;;;15.80;5.10;;;16.30;99.90;;;;;;5034027;28;20041;-74
2023/09/28 01:58:16;;;;;;;10.50;4.85;;;16.50;99.90;;;;;;5040860;28;20077;-72
2023/09/28 02:00:45;;;;;;;8.57;4.95;;;16.50;99.90;;;;;;5032804;28;20065;-74
2023/09/28 02:03:11;;;;;;;13.43;5.13;;;16.50;99.90;;;;;;5028898;28;20052;-74
2023/09/28 02:05:37;;;;;;;11.05;4.82;;;16.40;99.90;;;;;;5030803;28;20025;-72
2023/09/28 02:08:05;;;;;;;10.48;5.47;;;16.40;99.90;;;;;;5028912;28;20044;-74
2023/09/28 02:10:32;;;;;;;36.90;5.85;;;16.30;99.90;;;;;;5031459;28;20044;-72
2023/09/28 02:12:58;;;;;;;11.93;5.25;;;16.30;99.90;;;;;;5040362;28;20437;-75
2023/09/28 02:15:24;;;;;;;12.97;4.80;;;16.20;99.90;;;;;;5033406;28;20082;-73
2023/09/28 02:17:50;;;;;;;11.75;4.72;;;16.20;99.90;;;;;;5033263;28;20033;-74
2023/09/28 02:20:16;;;;;;;9.55;5.13;;;16.20;99.90;;;;;;5030097;28;20530;-72
2023/09/28 02:22:46;;;;;;;;;;;16.30;99.90;;;;;;5032307;28;20056;-72
2023/09/28 02:25:19;;;;;;;9.10;5.40;;;16.20;99.90;;;;;;5027772;28;19913;-73
2023/09/28 02:27:46;;;;;;;11.85;5.28;;;16.20;99.90;;;;;;5028322;28;20116;-73
2023/09/28 02:30:14;;;;;;;8.35;4.97;;;16.20;99.90;;;;;;5030495;28;20052;-72
2023/09/28 02:32:40;;;;;;;14.75;4.82;;;16.20;99.90;;;;;;5028808;28;20045;-72
2023/09/28 02:35:07;;;;;;;12.23;5.13;;;16.20;99.90;;;;;;5033970;28;20025;-74
2023/09/28 02:37:34;;;;;;;10.60;4.85;;;16.00;99.90;;;;;;5029278;28;20041;-72
2023/09/28 02:40:03;;;;;;;12.80;5.13;;;15.90;99.90;;;;;;5018021;28;20033;-72
2023/09/28 02:42:29;;;;;;;12.95;5.97;;;15.80;99.90;;;;;;5024107;28;20032;-73
2023/09/28 02:44:54;;;;;;;22.00;5.70;;;15.80;99.90;;;;;;5026955;28;20486;-73
2023/09/28 02:47:21;;;;;;;8.37;5.50;;;15.90;99.90;;;;;;5024621;28;20045;-72
2023/09/28 02:49:47;;;;;;;12.05;5.95;;;15.80;99.90;;;;;;5030078;28;20072;-72
2023/09/28 02:52:13;;;;;;;9.07;5.75;;;15.90;99.90;;;;;;5019834;28;20030;-74
2023/09/28 02:54:38;;;;;;;15.37;5.40;;;15.90;99.90;;;;;;5028731;28;20033;-73
2023/09/28 02:57:04;;;;;;;15.80;5.77;;;15.90;99.90;;;;;;5033483;28;20116;-74
2023/09/28 02:59:30;;;;;;;13.47;5.33;;;15.80;99.90;;;;;;5040028;28;20025;-72
2023/09/28 03:01:55;;;;;;;10.97;5.40;;;15.90;99.90;;;;;;5031827;28;20040;-73
2023/09/28 03:04:21;;;;;;;17.47;5.70;;;15.80;99.90;;;;;;5033834;28;20287;-71
2023/09/28 03:06:48;;;;;;;11.77;5.73;;;15.80;99.90;;;;;;5031556;28;20834;-72
2023/09/28 03:09:13;;;;;;;8.95;5.22;;;15.60;99.90;;;;;;5026083;28;20480;-74
2023/09/28 03:11:39;;;;;;;11.20;5.43;;;15.80;99.90;;;;;;5031393;28;20134;-72
2023/09/28 03:14:06;;;;;;;8.05;5.50;;;15.80;99.90;;;;;;5027319;28;20033;-73
2023/09/28 03:16:32;;;;;;;;;;;15.70;99.90;;;;;;5031469;28;20464;-73
2023/09/28 03:18:58;;;;;;;12.55;5.68;;;15.80;99.90;;;;;;5020586;28;19908;-72
2023/09/28 03:21:25;;;;;;;13.57;6.10;;;15.70;99.90;;;;;;5029574;28;20040;-72
2023/09/28 03:23:52;;;;;;;13.43;6.07;;;15.70;99.90;;;;;;5029982;28;20098;-72
2023/09/28 03:26:18;;;;;;;18.00;5.60;;;15.70;99.90;;;;;;5026307;28;20025;-72
2023/09/28 03:28:43;;;;;;;15.50;5.73;;;15.50;99.90;;;;;;5022124;28;20384;-74
2023/09/28 03:31:09;;;;;;;13.77;6.07;;;15.60;99.90;;;;;;5035799;28;20383;-73
2023/09/28 03:33:35;;;;;;;10.90;5.57;;;15.50;99.90;;;;;;5016240;28;20042;-73
2023/09/28 03:36:01;;;;;;;13.53;5.77;;;15.50;99.90;;;;;;5029094;28;20108;-71
2023/09/28 03:38:26;;;;;;;10.27;5.45;;;15.30;99.90;;;;;;5023075;28;20044;-72
2023/09/28 03:40:53;;;;;;;10.63;5.93;;;15.30;99.90;;;;;;5032521;28;20041;-72
2023/09/28 03:43:18;;;;;;;;;;;15.20;99.90;;;;;;5041816;28;20039;-71
2023/09/28 03:45:44;;;;;;;11.15;5.85;;;15.20;99.90;;;;;;5026441;28;19992;-71
2023/09/28 03:48:09;;;;;;;8.80;5.53;;;15.30;99.90;;;;;;5028435;28;20802;-74
2023/09/28 03:50:35;;;;;;;14.83;5.90;;;15.30;99.90;;;;;;5022089;28;20033;-72
2023/09/28 03:53:03;;;;;;;14.88;6.30;;;15.50;99.90;;;;;;5017356;28;20411;-74
2023/09/28 03:55:29;;;;;;;19.30;5.80;;;15.40;99.90;;;;;;5028773;28;20517;-73
2023/09/28 03:58:00;;;;;;;20.40;5.93;;;15.50;99.90;;;;;;5034109;28;20115;-74
2023/09/28 04:00:26;;;;;;;8.40;5.25;;;15.50;99.90;;;;;;5023266;28;20029;-73
2023/09/28 04:02:52;;;;;;;16.55;5.57;;;15.30;99.90;;;;;;5029112;28;20041;-74
2023/09/28 04:05:18;;;;;;;10.50;5.72;;;15.30;99.90;;;;;;5034918;28;20488;-74
2023/09/28 04:07:44;;;;;;;13.70;5.65;;;15.40;99.90;;;;;;5028117;28;20030;-72
2023/09/28 04:10:11;;;;;;;16.00;5.45;;;15.30;99.90;;;;;;5027261;28;20041;-74
2023/09/28 04:12:37;;;;;;;18.35;6.38;;;15.40;99.90;;;;;;5026895;28;20033;-72
2023/09/28 04:15:04;;;;;;;16.35;6.30;;;15.40;99.90;;;;;;5030239;28;20501;-74
2023/09/28 04:17:30;;;;;;;12.50;6.22;;;15.30;99.90;;;;;;5020573;28;20036;-70
2023/09/28 04:19:55;;;;;;;11.02;4.97;;;15.40;99.90;;;;;;5021711;28;20025;-70
2023/09/28 04:22:21;;;;;;;13.03;6.83;;;15.40;99.90;;;;;;5018394;28;21244;-71
2023/09/28 04:24:47;;;;;;;11.53;5.80;;;15.40;99.90;;;;;;5027742;28;20029;-72
2023/09/28 04:27:12;;;;;;;14.80;6.07;;;15.40;99.90;;;;;;5029220;28;20434;-71
2023/09/28 04:29:38;;;;;;;12.60;5.47;;;15.30;99.90;;;;;;5032816;28;20098;-70
2023/09/28 04:32:04;;;;;;;18.58;6.13;;;15.40;99.90;;;;;;5027974;28;20044;-70
2023/09/28 04:34:30;;;;;;;18.00;7.15;;;15.40;99.90;;;;;;5031459;28;20403;-70
2023/09/28 04:36:57;;;;;;;11.93;6.05;;;15.30;99.90;;;;;;5028024;28;20038;-72
2023/09/28 04:39:24;;;;;;;12.48;6.45;;;15.20;99.90;;;;;;5024987;28;20083;-71
2023/09/28 04:41:53;;;;;;;12.02;6.85;;;15.20;99.90;;;;;;5027104;28;20029;-70
2023/09/28 04:44:20;;;;;;;11.30;5.85;;;15.20;99.90;;;;;;5032971;28;20028;-72
2023/09/28 04:46:46;;;;;;;11.60;5.50;;;;;;;;;;5029967;28;20116;-70
2023/09/28 04:49:12;;;;;;;12.70;5.95;;;;;;;;;;5032836;28;20061;-72
2023/09/28 04:51:39;;;;;;;16.05;6.47;;;;;;;;;;5022803;28;20026;-68
2023/09/28 04:54:05;;;;;;;12.73;6.00;;;;;;;;;;5031558;28;20045;-70
2023/09/28 04:56:32;;;;;;;14.18;6.43;;;;;;;;;;5023761;28;20030;-70
2023/09/28 04:58:59;;;;;;;10.73;5.70;;;;;;;;;;5032940;28;20507;-68
2023/09/28 05:01:25;;;;;;;10.05;5.93;;;;;;;;;;5028034;28;20038;-70
2023/09/28 05:03:53;;;;;;;11.70;5.53;;;;;;;;;;5029600;28;20053;-69
2023/09/28 05:06:19;;;;;;;15.60;6.13;;;;;;;;;;5033521;28;20068;-69
2023/09/28 05:08:45;;;;;;;18.23;6.28;;;;;;;;;;5016951;28;20033;-69
2023/09/28 05:11:12;;;;;;;14.98;5.90;;;;;;;;;;5025066;28;20052;-69
2023/09/28 05:13:38;;;;;;;10.98;6.10;;;;;;;;;;5015773;28;20045;-68
2023/09/28 05:16:04;;;;;;;14.13;6.40;;;;;;;;;;5027660;28;20037;-69
2023/09/28 05:18:30;;;;;;;13.13;6.07;;;;;;;;;;5027701;28;20037;-69
2023/09/28 05:20:56;;;;;;;15.18;7.10;;;;;;;;;;5033553;28;20054;-70
2023/09/28 05:23:23;;;;;;;13.95;7.03;;;;;;;;;;5030927;28;20025;-68
2023/09/28 05:25:49;;;;;;;13.82;6.90;;;;;;;;;;5040859;28;20067;-69
2023/09/28 05:28:15;;;;;;;;;;;;;;;;;;5029993;28;20505;-70
2023/09/28 05:30:41;;;;;;;15.77;6.25;;;;;;;;;;5028562;28;19996;-69
2023/09/28 05:33:07;;;;;;;12.77;6.90;;;;;;;;;;5035139;28;20199;-69
2023/09/28 05:35:33;;;;;;;14.30;6.82;;;;;;;;;;5026357;28;20116;-70
2023/09/28 05:37:59;;;;;;;13.30;6.32;;;;;;;;;;5025703;28;20037;-68
2023/09/28 05:40:26;;;;;;;14.65;7.15;;;;;;;;;;5035629;28;20035;-69
2023/09/28 05:42:52;;;;;;;;;;;;;;;;;;5023126;28;20093;-69
2023/09/28 05:45:18;;;;;;;14.82;6.88;;;;;;;;;;5025392;28;20383;-70
2023/09/28 05:47:44;;;;;;;17.42;7.28;;;;;;;;;;5033608;28;20044;-72
2023/09/28 05:50:11;;;;;;;15.35;6.90;;;;;;;;;;5028064;28;20037;-68
2023/09/28 05:52:37;;;;;;;17.02;7.68;;;;;;;;;;5035807;28;20026;-70
2023/09/28 05:55:04;;;;;;;17.58;7.03;;;;;;;;;;5028407;28;20526;-69
2023/09/28 05:57:30;;;;;;;17.77;6.85;;;;;;;;;;5024609;28;20037;-68
2023/09/28 05:59:56;;;;;;;17.02;7.30;;;;;;;;;;5022347;28;20041;-68
2023/09/28 06:02:22;;;;;;;20.10;7.70;;;;;;;;;;5031443;28;20068;-68
2023/09/28 06:04:48;;;;;;;14.32;6.90;;;;;;;;;;5025725;28;20029;-68
2023/09/28 06:07:14;;;;;;;12.90;7.00;;;;;;;;;;5036301;28;20040;-69
2023/09/28 06:09:40;;;;;;;14.30;7.30;;;;;;;;;;5037707;28;20445;-69
2023/09/28 06:12:06;;;;;;;13.43;6.80;;;;;;;;;;5032470;28;20032;-71
2023/09/28 06:14:35;;;;;;;18.58;7.40;;;;;;;;;;5038211;28;20040;-73
2023/09/28 06:17:02;;;;;;;18.33;7.10;;;;;;;;;;5040180;28;20041;-68
2023/09/28 06:19:28;;;;;;;20.70;7.30;;;;;;;;;;5037749;28;20036;-70
2023/09/28 06:21:54;;;;;;;14.68;6.53;;;;;;;;;;5029772;28;20060;-71
2023/09/28 06:24:20;;;;;;;16.05;6.65;;;;;;;;;;5033953;28;20037;-68
2023/09/28 06:26:48;;;;;;;14.73;6.78;;;;;;;;;;5040958;28;20372;-69
2023/09/28 06:29:14;;;;;;;17.50;7.68;;;;;;;;;;5029048;28;20030;-68
2023/09/28 06:31:41;;;;;;;14.80;6.95;;;;;;;;;;5025615;28;20065;-69
2023/09/28 06:34:08;;;;;;;13.50;7.55;;;;;;;;;;5026821;28;20026;-67
2023/09/28 06:36:34;;;;;;;15.75;8.43;;;;;;;;;;5023803;28;20029;-68
2023/09/28 06:39:00;;;;;;;20.35;7.45;;;;;;;;;;5026857;28;20063;-67
2023/09/28 06:41:27;;;;;;;20.60;7.00;;;;;;;;;;5026688;28;20522;-68
2023/09/28 06:43:53;;;;;;;12.48;5.97;;;;;;;;;;5029088;28;20059;-68
2023/09/28 06:46:20;;;;;;;13.85;6.38;;;;;;;;;;5024331;28;20511;-68
2023/09/28 06:48:47;;;;;;;13.93;6.32;;;;;;;;;;5030904;28;20434;-68
2023/09/28 06:51:12;;;;;;;16.67;7.05;;;15.20;99.90;;;;;;5030101;28;20625;-68
2023/09/28 06:53:38;;;;;;;15.50;7.60;;;16.20;99.90;;;;;;5027981;28;20140;-68
2023/09/28 06:56:05;;;;;;;14.18;7.07;;;16.60;99.90;;;;;;5028684;28;20492;-67
2023/09/28 06:58:30;;;;;;;17.55;7.07;;;17.00;99.90;;;;;;5033326;28;20068;-67
2023/09/28 07:00:58;;;;;;;18.73;6.97;;;16.90;99.90;;;;;;5026993;28;20033;-68
2023/09/28 07:03:24;;;;;;;14.77;6.45;;;16.70;99.90;;;;;;5028477;28;20462;-68
2023/09/28 07:05:49;;;;;;;12.40;5.55;;;16.90;99.90;;;;;;5024057;28;20101;-68
2023/09/28 07:08:15;;;;;;;12.15;5.75;;;16.90;99.90;;;;;;5021693;28;20030;-68
2023/09/28 07:10:42;;;;;;;12.43;5.83;;;;;;;;;;5032227;28;20049;-68
2023/09/28 07:13:07;;;;;;;;;;;16.80;99.90;;;;;;5026535;28;20466;-68
2023/09/28 07:15:40;;;;;;;18.75;6.15;;;18.60;99.90;;;;;;5022138;28;20012;-68
2023/09/28 07:18:06;;;;;;;14.55;6.18;;;18.00;99.90;;;;;;5035618;28;20041;-69
2023/09/28 07:20:32;;;;;;;9.60;5.72;;;17.90;99.90;;;;;;5020880;28;20392;-69
2023/09/28 07:22:58;;;;;;;13.23;6.65;;;17.60;99.90;;;;;;5028042;28;20037;-68
2023/09/28 07:25:27;;;;;;;16.07;6.23;;;17.40;99.90;;;;;;5031857;28;20029;-68
2023/09/28 07:27:53;;;;;;;11.93;6.13;;;17.50;99.90;;;;;;5031720;28;20067;-68
2023/09/28 07:30:19;;;;;;;14.43;7.32;;;17.50;99.90;;;;;;5027803;28;20034;-68
2023/09/28 07:32:46;;;;;;;12.65;7.03;;;17.60;99.90;;;;;;5043477;28;20041;-68
2023/09/28 07:35:16;;;;;;;13.23;6.70;;;17.70;99.90;;;;;;5028462;28;20026;-68
2023/09/28 07:37:42;;;;;;;17.02;6.93;;;17.70;99.90;;;;;;5023007;28;20562;-68
2023/09/28 07:40:13;;;;;;;16.02;6.38;;;17.60;99.90;;;;;;5021691;28;20035;-68
2023/09/28 07:42:43;;;;;;;11.02;5.72;;;17.70;99.90;;;;;;5028559;28;20056;-69
2023/09/28 07:45:11;;;;;;;13.40;6.25;;;17.80;99.90;;;;;;5026969;28;20043;-68
2023/09/28 07:47:38;;;;;;;10.15;5.55;;;17.80;99.90;;;;;;5024535;28;20072;-68
2023/09/28 07:50:05;;;;;;;20.02;6.75;;;17.90;99.90;;;;;;5029951;28;20041;-69
2023/09/28 07:52:30;;;;;;;16.20;6.60;;;18.00;99.90;;;;;;5028028;28;20143;-68
2023/09/28 07:54:56;;;;;;;16.53;6.23;;;18.10;99.90;;;;;;5021799;28;20116;-68
2023/09/28 07:57:22;;;;;;;15.47;6.57;;;;;;;;;;5028094;28;20038;-68
2023/09/28 07:59:48;;;;;;;17.13;6.45;;;;;;;;;;5030363;28;20522;-69
2023/09/28 08:02:15;;;;;;;13.13;5.60;;;;;;;;;;5028749;28;20426;-68
2023/09/28 08:04:41;;;;;;;12.60;5.80;;;;;;;;;;5029035;28;20073;-68
2023/09/28 08:07:06;;;;;;;11.98;5.82;;;;;;;;;;5027278;28;20162;-67
2023/09/28 08:09:33;;;;;;;17.58;6.75;;;;;;;;;;5025656;28;20579;-69
2023/09/28 08:11:59;;;;;;;10.85;6.13;;;;;;;;;;5029550;28;20029;-69
2023/09/28 08:14:25;;;;;;;10.63;6.32;;;;;;;;;;5034768;28;20401;-70
2023/09/28 08:16:52;;;;;;;16.48;7.43;;;;;;;;;;5030611;28;20029;-69
2023/09/28 08:19:19;;;;;;;18.67;7.18;;;18.20;99.90;;;;;;5034405;28;20530;-69
2023/09/28 08:21:45;;;;;;;18.30;6.03;;;21.70;95.70;;;;;;5027389;28;20030;-70
2023/09/28 08:24:11;;;;;;;13.95;6.15;;;22.10;94.00;;;;;;5023286;28;20163;-70
2023/09/28 08:26:38;;;;;;;11.90;6.07;;;22.40;94.10;;;;;;5027099;28;20394;-70
2023/09/28 08:29:04;;;;;;;13.10;5.93;;;22.50;92.40;;;;;;5039774;28;20117;-70
2023/09/28 08:31:31;;;;;;;;;;;22.50;92.30;;;;;;5028673;28;20033;-69
2023/09/28 08:34:00;;;;;;;20.60;6.70;;;22.40;93.50;;;;;;5039159;28;20562;-71
2023/09/28 08:36:29;;;;;;;24.38;7.20;;;22.70;90.90;;;;;;5031740;28;20040;-70
2023/09/28 08:38:58;;;;;;;19.60;8.10;;;23.00;91.70;;;;;;5026117;28;20466;-70
2023/09/28 08:41:39;;;;;;;15.90;8.57;;;23.00;90.70;;;;;;5021307;28;20026;-70
2023/09/28 08:44:06;;;;;;;10.77;8.02;;;23.20;91.90;;;;;;5023371;28;20625;-70
2023/09/28 08:46:40;;;;;;;18.33;8.63;;;23.60;90.70;;;;;;5026925;28;20549;-70
2023/09/28 08:49:08;;;;;;;12.50;7.68;;;23.70;85.70;;;;;;5025730;28;20084;-70
2023/09/28 08:51:36;;;;;;;26.58;8.20;;;23.20;87.10;;;;;;5031708;28;20041;-70
2023/09/28 08:54:05;;;;;;;25.60;8.73;;;22.80;88.10;;;;;;5034330;28;20030;-69
2023/09/28 08:56:37;;;;;;;16.17;8.50;;;22.50;91.10;;;;;;5032133;28;20025;-70
2023/09/28 08:59:04;;;;;;;23.92;8.05;;;22.40;90.90;;;;;;5029291;28;20055;-69
2023/09/28 09:01:34;;;;;;;34.00;8.48;;;22.50;91.40;;;;;;5029118;28;20049;-69
2023/09/28 09:04:00;;;;;;;18.00;7.60;;;22.80;90.70;;;;;;5026922;28;20056;-72
2023/09/28 09:06:31;;;;;;;17.52;7.60;;;22.90;90.70;;;;;;5029235;28;20036;-68
2023/09/28 09:09:05;;;;;;;14.90;6.60;;;22.80;91.80;;;;;;5026590;28;20455;-68
2023/09/28 09:11:31;;;;;;;12.60;7.25;;;23.30;91.00;;;;;;5029075;28;20029;-73
2023/09/28 09:13:57;;;;;;;12.02;6.53;;;23.70;90.30;;;;;;5027214;28;20084;-71
2023/09/28 09:16:24;;;;;;;;;;;23.80;91.20;;;;;;5031969;28;20096;-73
2023/09/28 09:18:52;;;;;;;16.45;6.85;;;24.10;90.20;;;;;;5042302;28;19958;-71
2023/09/28 09:21:18;;;;;;;14.82;6.28;;;24.20;90.20;;;;;;5021786;28;20037;-72
2023/09/28 09:23:59;;;;;;;20.98;6.68;;;24.40;84.60;;;;;;5027910;28;20037;-71
2023/09/28 09:26:24;;;;;;;9.95;6.05;;;24.40;89.70;;;;;;5026163;28;20029;-73
2023/09/28 09:28:51;;;;;;;16.02;6.80;;;24.30;89.90;;;;;;5032973;28;20036;-73
2023/09/28 09:31:23;;;;;;;17.55;6.40;;;24.40;87.80;;;;;;5028882;28;20033;-72
2023/09/28 09:33:50;;;;;;;16.00;5.97;;;24.40;88.90;;;;;;5027003;28;20033;-72
2023/09/28 09:36:18;;;;;;;12.10;5.88;;;24.30;84.80;;;;;;5025759;28;20034;-73
2023/09/28 09:38:45;;;;;;;12.70;5.80;;;24.20;83.60;;;;;;5029137;28;20392;-72
2023/09/28 09:41:11;;;;;;;14.57;6.13;;;24.00;88.70;;;;;;5026784;28;20033;-71
2023/09/28 09:43:41;;;;;;;16.15;6.28;;;23.80;89.30;;;;;;5027544;28;20036;-72
2023/09/28 09:46:08;;;;;;;16.90;6.13;;;23.70;89.10;;;;;;5018832;28;20037;-71
2023/09/28 09:48:42;;;;;;;16.25;6.82;;;23.50;89.20;;;;;;5031960;28;20112;-72
2023/09/28 09:51:12;;;;;;;17.95;6.65;;;23.50;90.00;;;;;;5032792;28;20021;-73
2023/09/28 09:53:42;;;;;;;15.27;6.65;;;23.20;90.90;;;;;;5026855;28;20473;-73
2023/09/28 09:56:09;;;;;;;18.45;6.30;;;23.20;90.70;;;;;;5027534;28;20025;-72
2023/09/28 09:58:48;;;;;;;15.85;5.70;;;23.10;90.60;;;;;;5037145;28;20034;-73
2023/09/28 10:01:19;;;;;;;19.63;6.32;;;23.00;92.70;;;;;;5050348;28;20040;-73
2023/09/28 10:03:51;;;;;;;10.68;6.85;;;22.90;92.50;;;;;;5032294;28;20537;-71
2023/09/28 10:06:19;;;;;;;17.20;5.43;;;22.80;92.20;;;;;;5024009;28;20041;-73
2023/09/28 10:08:53;;;;;;;11.45;6.07;;;22.80;92.90;;;;;;5029835;28;20025;-72
2023/09/28 10:11:19;;;;;;;17.02;5.63;;;22.90;93.20;;;;;;5025246;28;20575;-70
2023/09/28 10:13:48;;;;;;;11.35;5.65;;;22.80;93.20;;;;;;5027097;28;20033;-72
2023/09/28 10:16:16;;;;;;;16.33;5.90;;;22.90;91.70;;;;;;5027557;28;20040;-74
2023/09/28 10:18:46;;;;;;;15.77;6.10;;;23.10;92.10;;;;;;5029857;28;20480;-71
2023/09/28 10:21:14;;;;;;;15.45;6.13;;;23.00;90.80;;;;;;5028408;28;20021;-71
2023/09/28 10:23:40;;;;;;;13.43;6.13;;;23.10;90.00;;;;;;5035176;28;20014;-70
2023/09/28 10:26:12;;;;;;;17.27;5.43;;;23.20;89.70;;;;;;5032229;28;20037;-74
2023/09/28 10:29:04;;;;;;;8.88;5.65;;;22.90;90.20;;;;;;5027873;28;20037;-71
2023/09/28 10:31:31;;;;;;;12.57;6.28;;;23.10;89.30;;;;;;5026493;28;20888;-70
2023/09/28 10:33:58;;;;;;;17.25;5.65;;;23.20;90.60;;;;;;5028966;28;20511;-72
2023/09/28 10:36:28;;;;;;;14.68;5.90;;;23.20;89.10;;;;;;5033417;28;20223;-69
2023/09/28 10:41:50;;;;;;;10.98;5.95;;;23.30;90.70;;;;;;5032935;28;20029;-71
2023/09/28 10:44:17;;;;;;;11.23;5.67;;;23.10;92.00;;;;;;5034925;28;20027;-71
2023/09/28 10:46:46;;;;;;;12.52;5.47;;;23.20;91.20;;;;;;5037322;28;20329;-70
2023/09/28 10:49:22;;;;;;;13.65;5.50;;;23.10;92.10;;;;;;5030429;28;20053;-71
2023/09/28 10:51:48;;;;;;;8.05;5.32;;;23.00;90.10;;;;;;5030839;28;20035;-71
2023/09/28 10:54:14;;;;;;;11.82;6.40;;;23.00;91.10;;;;;;5035034;28;20039;-69
2023/09/28 10:56:40;;;;;;;14.77;5.72;;;22.90;90.50;;;;;;5030072;28;20410;-70
2023/09/28 10:59:07;;;;;;;11.18;5.70;;;22.90;91.90;;;;;;5034461;28;20108;-71
2023/09/28 11:01:42;;;;;;;10.82;5.90;;;22.90;91.70;;;;;;5027601;28;20022;-71
2023/09/28 11:04:08;;;;;;;6.82;5.18;;;22.90;91.10;;;;;;5021770;28;20091;-72
2023/09/28 11:06:35;;;;;;;12.02;4.72;;;22.70;91.10;;;;;;5031291;28;20095;-70
2023/09/28 11:09:05;;;;;;;9.15;4.80;;;22.80;88.60;;;;;;5028219;28;20125;-72
2023/09/28 11:11:31;;;;;;;6.28;4.45;;;22.70;90.20;;;;;;5029135;28;20029;-71
2023/09/28 11:13:58;;;;;;;9.68;5.00;;;22.70;88.10;;;;;;5023924;28;20416;-71
2023/09/28 11:16:25;;;;;;;8.60;5.05;;;22.70;90.10;;;;;;5033924;28;20066;-71
2023/09/28 11:18:52;;;;;;;10.50;5.57;;;22.80;90.60;;;;;;5033496;28;20388;-71
2023/09/28 11:23:14;;;;;;;11.23;5.47;;;22.60;85.60;;;;;;5054540;28;20884;-71
2023/09/28 11:25:42;;;;;;;13.10;5.88;;;22.60;82.90;;;;;;5027764;27;20660;-73
2023/09/28 11:28:08;;;;;;;11.15;5.25;;;22.70;82.10;;;;;;5016289;28;20045;-72
2023/09/28 11:30:34;;;;;;;16.63;6.07;;;22.60;83.80;;;;;;5034240;28;20104;-72
2023/09/28 11:33:03;;;;;;;13.67;5.03;;;22.50;84.90;;;;;;5010617;28;20520;-73
2023/09/28 11:35:34;;;;;;;11.20;5.78;;;22.60;85.60;;;;;;5010995;28;20326;-74
2023/09/28 11:38:00;;;;;;;6.40;4.57;;;22.70;83.50;;;;;;5012991;28;20029;-72
2023/09/28 11:40:27;;;;;;;10.15;5.20;;;22.70;83.40;;;;;;5015533;28;20033;-73
2023/09/28 11:42:53;;;;;;;14.25;5.28;;;22.70;86.60;;;;;;5012294;28;20045;-71
2023/09/28 11:45:28;;;;;;;11.73;5.20;;;22.90;84.30;;;;;;5011949;28;20556;-71
2023/09/28 11:47:54;;;;;;;10.50;5.32;;;22.80;84.60;;;;;;5009565;28;20045;-71
2023/09/28 11:50:22;;;;;;;16.42;5.13;;;22.90;83.90;;;;;;5010304;28;20030;-71
2023/09/28 11:52:49;;;;;;;13.50;5.57;;;23.00;82.10;;;;;;5012569;28;20064;-70
2023/09/28 11:55:16;;;;;;;7.30;5.60;;;23.00;81.70;;;;;;5013670;28;20180;-70
2023/09/28 11:57:45;;;;;;;11.75;5.00;;;23.10;82.80;;;;;;5013764;28;20037;-70
2023/09/28 12:00:21;;;;;;;9.75;4.80;;;23.10;79.80;;;;;;5009471;28;20040;-71
2023/09/28 12:02:46;;;;;;;6.97;4.60;;;23.20;79.10;;;;;;5014579;28;20041;-70
2023/09/28 12:05:13;;;;;;;11.13;5.50;;;23.10;77.60;;;;;;5008804;28;20567;-71
2023/09/28 12:07:41;;;;;;;9.55;5.10;;;23.20;79.80;;;;;;5008440;28;20405;-73
2023/09/28 12:10:09;;;;;;;11.65;4.80;;;23.50;76.20;;;;;;5009253;28;20030;-71
2023/09/28 12:12:36;;;;;;;13.13;4.63;;;23.40;77.80;;;;;;5013672;28;20540;-71
2023/09/28 12:15:06;;;;;;;11.40;4.72;;;23.30;85.40;;;;;;5006575;28;20783;-70
2023/09/28 12:17:32;;;;;;;7.03;4.38;;;23.30;83.90;;;;;;5008311;28;20593;-71
2023/09/28 12:19:57;;;;;;;8.95;4.90;;;23.30;84.90;;;;;;5011500;28;20105;-74
2023/09/28 12:22:23;;;;;;;11.10;5.10;;;23.50;81.50;;;;;;5010106;28;20577;-71
2023/09/28 12:24:49;;;;;;;13.30;5.40;;;23.70;80.60;;;;;;5028174;28;20034;-72
2023/09/28 12:27:14;;;;;;;13.63;5.63;;;23.70;83.00;;;;;;5010219;28;20048;-72
2023/09/28 12:29:40;;;;;;;15.82;5.30;;;23.70;78.30;;;;;;5012489;28;20292;-77
2023/09/28 12:32:06;;;;;;;8.57;4.60;;;23.70;81.50;;;;;;5012904;28;20056;-71
2023/09/28 12:34:32;;;;;;;12.45;4.63;;;23.70;80.50;;;;;;5001367;28;20282;-70
2023/09/28 12:36:57;;;;;;;7.77;4.93;;;23.60;80.20;;;;;;5001259;28;20416;-68
2023/09/28 12:39:24;;;;;;;9.30;4.50;;;23.60;78.90;;;;;;4994347;28;20702;-68
2023/09/28 12:41:51;;;;;;;10.15;4.93;;;23.80;78.20;;;;;;4999699;28;20449;-67
2023/09/28 12:44:17;;;;;;;8.77;5.10;;;23.50;79.60;;;;;;4995315;28;20061;-67
2023/09/28 12:46:44;;;;;;;14.43;5.78;;;23.40;79.40;;;;;;4995004;28;20085;-67
2023/09/28 12:49:10;;;;;;;10.23;4.15;;;23.60;78.60;;;;;;4994467;28;20108;-67
2023/09/28 12:51:36;;;;;;;12.60;5.22;;;23.60;79.50;;;;;;4996828;28;20614;-67
2023/09/28 12:54:02;;;;;;;10.32;5.00;;;24.00;81.90;;;;;;4996340;28;20038;-67
2023/09/28 12:56:29;;;;;;;15.80;4.63;;;24.00;78.20;;;;;;4994961;28;20441;-67
2023/09/28 12:58:55;;;;;;;12.80;4.85;;;24.10;76.90;;;;;;4998860;28;20080;-67
2023/09/28 13:01:22;;;;;;;9.30;4.65;;;24.10;81.10;;;;;;4996759;28;20449;-67
2023/09/28 13:03:49;;;;;;;15.77;4.60;;;24.10;79.40;;;;;;4995953;28;20229;-67
2023/09/28 13:06:15;;;;;;;12.15;4.45;;;24.10;78.80;;;;;;4998379;28;20096;-67